Flugplatz Kehl-Sundheim (EDSK)

Hier findest Du alle Informationen zum Flugplatz Kehl-Sundheim (EDSK).

Informationen für Piloten zum Flugplatz Kehl-Sundheim

Hier findest Du alle relevanten Informationen, die Du als Pilot benötigst, um Kehl-Sundheim anzufliegen.

Flugplatz: Kehl-Sundheim ICAO-Code: EDSK
Frequenz Turm: 122,750 Mhz GAFOR Gebiet: 51
Frequenz Ground: 122,750 Mhz Mogas: ja
Platzrunde: SE 1300 ft Landegebühr: -
Platzhöhe: - Sunrise: 05:50 Uhr UTC
Pisten: 03/21 - 475 m x 30 m, GRAS Sunset: 16:37 Uhr UTC

Flugwetter am Flugplatz Kehl-Sundheim

Die METAR Information stammen aus EDTL (21.12 km entfernt).

METAR Code:
2021/05/28 05:50
EDTL 280550Z VRB03KT CAVOK 10/08 Q1023

Temperatur: 9,1 °C Niederschlag: - Wind: 4,0 kt
Temperatur (min.): 8,2 °C Luftdruck: 1021 hPa Windrichtung: 240 °
Temperatur (max.): 9,7 °C Luftfeuchtigkeit: 92 % Bewölkung: 8/8

Flugschulen am Flugplatz Kehl-Sundheim

Am Flugplatz Kehl-Sundheim gibt es 2 Flugschulen.

Benachbarte Flugplätze und Flugschulen

Es gibt 6 weitere Flugplätze in einem Umkreis von 50 km um den Flugplatz Kehl-Sundheim.

Jetzt anmelden

Passwort vergessen

Umfrage Archiv

Wie habt Ihr Eure UL-Lizenz erworben?

Ausbildung als Fußgänger
67.2 %
Umschulung von Motorflug
16.4 %
Umschulung von Segelflug
14.8 %
Umschulung von Helikopter
1.6 %
Stimmen: 122 | Diskussion
Anzeige: Roland Aircraft
Statistik Alle Mitglieder

Aktuell sind 41 Besucher online.

Anzeige: VFR Sprechfunk Simulator Anzeige: Pocket FMS